sensor_id;sensor_type;location;lat;lon;timestamp;pressure;altitude;pressure_sealevel;temperature;humidity
54918;BME280;40818;50.562;7.454;2023-03-26T00:06:30;96980.56;;;6.92;93.56
54918;BME280;40818;50.562;7.454;2023-03-26T00:16:39;96977.63;;;6.84;96.78
54918;BME280;40818;50.562;7.454;2023-03-26T00:26:44;96970.41;;;6.62;99.63
54918;BME280;40818;50.562;7.454;2023-03-26T00:36:55;96974.38;;;6.53;100.00
54918;BME280;40818;50.562;7.454;2023-03-26T00:47:02;96970.63;;;6.44;100.00
54918;BME280;40818;50.562;7.454;2023-03-26T00:57:08;96957.28;;;6.38;100.00
54918;BME280;40818;50.562;7.454;2023-03-26T01:07:15;96943.34;;;6.26;100.00
54918;BME280;40818;50.562;7.454;2023-03-26T01:17:23;96930.47;;;6.26;100.00
54918;BME280;40818;50.562;7.454;2023-03-26T01:27:36;96923.03;;;6.21;100.00
54918;BME280;40818;50.562;7.454;2023-03-26T01:37:50;96905.44;;;6.13;100.00
54918;BME280;40818;50.562;7.454;2023-03-26T01:48:05;96897.34;;;6.05;100.00
54918;BME280;40818;50.562;7.454;2023-03-26T01:58:11;96895.06;;;6.01;100.00
54918;BME280;40818;50.562;7.454;2023-03-26T02:08:25;96880.59;;;5.98;100.00
54918;BME280;40818;50.562;7.454;2023-03-26T02:18:35;96867.97;;;5.93;100.00
54918;BME280;40818;50.562;7.454;2023-03-26T02:28:43;96843.63;;;5.99;100.00
54918;BME280;40818;50.562;7.454;2023-03-26T02:38:49;96836.34;;;6.06;100.00
54918;BME280;40818;50.562;7.454;2023-03-26T02:48:55;96826.25;;;6.03;100.00
54918;BME280;40818;50.562;7.454;2023-03-26T02:59:00;96814.34;;;5.86;100.00
54918;BME280;40818;50.562;7.454;2023-03-26T03:09:07;96790.44;;;5.84;100.00
54918;BME280;40818;50.562;7.454;2023-03-26T03:19:10;96783.53;;;5.84;100.00
54918;BME280;40818;50.562;7.454;2023-03-26T03:29:17;96766.69;;;5.78;100.00
54918;BME280;40818;50.562;7.454;2023-03-26T03:39:21;96749.63;;;5.34;100.00
54918;BME280;40818;50.562;7.454;2023-03-26T03:49:27;96740.59;;;4.98;100.00
54918;BME280;40818;50.562;7.454;2023-03-26T03:59:32;96731.06;;;4.86;100.00
54918;BME280;40818;50.562;7.454;2023-03-26T04:09:41;96714.09;;;4.67;100.00
54918;BME280;40818;50.562;7.454;2023-03-26T04:19:50;96702.44;;;4.61;100.00
54918;BME280;40818;50.562;7.454;2023-03-26T04:29:59;96679.38;;;4.60;100.00
54918;BME280;40818;50.562;7.454;2023-03-26T04:40:10;96661.66;;;4.55;100.00
54918;BME280;40818;50.562;7.454;2023-03-26T04:50:27;96640.25;;;4.55;100.00
54918;BME280;40818;50.562;7.454;2023-03-26T05:00:31;96616.31;;;4.54;100.00
54918;BME280;40818;50.562;7.454;2023-03-26T05:10:37;96585.38;;;4.41;100.00
54918;BME280;40818;50.562;7.454;2023-03-26T05:20:46;96562.69;;;4.19;100.00
54918;BME280;40818;50.562;7.454;2023-03-26T05:30:54;96561.03;;;4.18;100.00
54918;BME280;40818;50.562;7.454;2023-03-26T05:41:01;96554.41;;;4.28;100.00
54918;BME280;40818;50.562;7.454;2023-03-26T05:51:09;96520.28;;;4.41;100.00
54918;BME280;40818;50.562;7.454;2023-03-26T06:01:20;96516.34;;;4.35;100.00
54918;BME280;40818;50.562;7.454;2023-03-26T06:12:03;96500.75;;;4.38;100.00
54918;BME280;40818;50.562;7.454;2023-03-26T06:22:07;96491.66;;;4.33;100.00
54918;BME280;40818;50.562;7.454;2023-03-26T06:32:46;96473.22;;;4.40;100.00
54918;BME280;40818;50.562;7.454;2023-03-26T06:42:56;96477.22;;;4.73;100.00
54918;BME280;40818;50.562;7.454;2023-03-26T06:53:22;96456.59;;;4.88;100.00
54918;BME280;40818;50.562;7.454;2023-03-26T07:03:49;96445.06;;;4.81;100.00
54918;BME280;40818;50.562;7.454;2023-03-26T07:14:33;96427.59;;;4.86;100.00
54918;BME280;40818;50.562;7.454;2023-03-26T07:24:51;96415.03;;;4.81;100.00
54918;BME280;40818;50.562;7.454;2023-03-26T07:35:26;96408.41;;;4.77;100.00
54918;BME280;40818;50.562;7.454;2023-03-26T07:45:56;96395.66;;;4.75;100.00
54918;BME280;40818;50.562;7.454;2023-03-26T07:56:19;96375.09;;;4.75;100.00
54918;BME280;40818;50.562;7.454;2023-03-26T08:06:38;96365.59;;;4.63;100.00
54918;BME280;40818;50.562;7.454;2023-03-26T08:17:22;96352.09;;;4.32;100.00
54918;BME280;40818;50.562;7.454;2023-03-26T08:27:35;96345.84;;;4.36;100.00
54918;BME280;40818;50.562;7.454;2023-03-26T08:37:42;96327.41;;;4.44;100.00
54918;BME280;40818;50.562;7.454;2023-03-26T08:48:19;96321.97;;;4.49;100.00
54918;BME280;40818;50.562;7.454;2023-03-26T09:20:09;96272.31;;;4.48;100.00
54918;BME280;40818;50.562;7.454;2023-03-26T09:41:16;96247.50;;;5.00;100.00
54918;BME280;40818;50.562;7.454;2023-03-26T09:51:47;96243.88;;;5.54;100.00
54918;BME280;40818;50.562;7.454;2023-03-26T10:02:00;96235.25;;;5.79;100.00
54918;BME280;40818;50.562;7.454;2023-03-26T10:12:19;96231.28;;;5.62;100.00
54918;BME280;40818;50.562;7.454;2023-03-26T10:22:41;96231.00;;;6.04;100.00
54918;BME280;40818;50.562;7.454;2023-03-26T10:32:55;96211.50;;;5.63;100.00
54918;BME280;40818;50.562;7.454;2023-03-26T10:43:25;96195.44;;;5.59;100.00
54918;BME280;40818;50.562;7.454;2023-03-26T10:53:35;96197.84;;;5.50;100.00
54918;BME280;40818;50.562;7.454;2023-03-26T11:03:50;96200.41;;;5.50;100.00
54918;BME280;40818;50.562;7.454;2023-03-26T11:14:00;96192.56;;;5.64;100.00
54918;BME280;40818;50.562;7.454;2023-03-26T11:24:28;96187.97;;;5.80;100.00
54918;BME280;40818;50.562;7.454;2023-03-26T11:34:38;96174.81;;;5.96;100.00
54918;BME280;40818;50.562;7.454;2023-03-26T11:44:48;96159.66;;;6.05;100.00
54918;BME280;40818;50.562;7.454;2023-03-26T11:54:54;96154.91;;;6.11;100.00
54918;BME280;40818;50.562;7.454;2023-03-26T12:05:17;96147.06;;;6.13;100.00
54918;BME280;40818;50.562;7.454;2023-03-26T12:15:21;96150.94;;;6.19;100.00
54918;BME280;40818;50.562;7.454;2023-03-26T12:25:30;96124.25;;;6.20;100.00
54918;BME280;40818;50.562;7.454;2023-03-26T12:35:35;96149.38;;;6.40;100.00
54918;BME280;40818;50.562;7.454;2023-03-26T12:45:42;96181.28;;;6.62;100.00
54918;BME280;40818;50.562;7.454;2023-03-26T12:55:53;96173.69;;;6.83;100.00
54918;BME280;40818;50.562;7.454;2023-03-26T13:06:16;96158.94;;;7.08;100.00
54918;BME280;40818;50.562;7.454;2023-03-26T13:16:33;96157.97;;;7.54;100.00
54918;BME280;40818;50.562;7.454;2023-03-26T13:26:49;96167.13;;;7.58;100.00
54918;BME280;40818;50.562;7.454;2023-03-26T13:37:01;96156.97;;;7.23;100.00
54918;BME280;40818;50.562;7.454;2023-03-26T13:47:15;96148.38;;;7.45;100.00
54918;BME280;40818;50.562;7.454;2023-03-26T13:57:23;96159.78;;;7.31;100.00
54918;BME280;40818;50.562;7.454;2023-03-26T14:07:34;96164.22;;;7.29;100.00
54918;BME280;40818;50.562;7.454;2023-03-26T14:17:45;96167.63;;;7.29;100.00
54918;BME280;40818;50.562;7.454;2023-03-26T14:28:14;96169.72;;;7.47;100.00
54918;BME280;40818;50.562;7.454;2023-03-26T14:38:52;96179.56;;;7.64;100.00
54918;BME280;40818;50.562;7.454;2023-03-26T14:49:28;96166.06;;;7.61;100.00
54918;BME280;40818;50.562;7.454;2023-03-26T15:00:10;96176.66;;;7.46;100.00
54918;BME280;40818;50.562;7.454;2023-03-26T15:11:04;96193.44;;;7.29;100.00
54918;BME280;40818;50.562;7.454;2023-03-26T15:32:18;96201.03;;;7.08;100.00
54918;BME280;40818;50.562;7.454;2023-03-26T15:42:36;96208.09;;;7.06;100.00
54918;BME280;40818;50.562;7.454;2023-03-26T15:52:52;96231.31;;;7.06;100.00
54918;BME280;40818;50.562;7.454;2023-03-26T16:03:18;96236.72;;;7.03;100.00
54918;BME280;40818;50.562;7.454;2023-03-26T16:13:33;96238.47;;;7.03;100.00
54918;BME280;40818;50.562;7.454;2023-03-26T16:23:51;96250.19;;;6.95;100.00
54918;BME280;40818;50.562;7.454;2023-03-26T16:34:18;96262.50;;;6.92;100.00
54918;BME280;40818;50.562;7.454;2023-03-26T16:44:30;96261.09;;;6.88;100.00
54918;BME280;40818;50.562;7.454;2023-03-26T16:54:47;96271.31;;;7.00;100.00
54918;BME280;40818;50.562;7.454;2023-03-26T17:04:56;96286.38;;;6.82;100.00
54918;BME280;40818;50.562;7.454;2023-03-26T17:15:12;96305.06;;;6.38;100.00
54918;BME280;40818;50.562;7.454;2023-03-26T17:25:24;96328.22;;;6.13;100.00
54918;BME280;40818;50.562;7.454;2023-03-26T17:36:28;96347.84;;;5.77;100.00
54918;BME280;40818;50.562;7.454;2023-03-26T17:46:33;96368.66;;;5.49;100.00
54918;BME280;40818;50.562;7.454;2023-03-26T17:56:42;96382.03;;;5.28;100.00
54918;BME280;40818;50.562;7.454;2023-03-26T18:07:07;96405.19;;;5.28;100.00
54918;BME280;40818;50.562;7.454;2023-03-26T18:17:17;96421.44;;;5.28;100.00
54918;BME280;40818;50.562;7.454;2023-03-26T18:27:21;96454.31;;;5.10;100.00
54918;BME280;40818;50.562;7.454;2023-03-26T18:37:30;96473.03;;;4.85;100.00
54918;BME280;40818;50.562;7.454;2023-03-26T18:47:34;96491.19;;;4.69;100.00
54918;BME280;40818;50.562;7.454;2023-03-26T18:57:42;96513.22;;;4.59;100.00
54918;BME280;40818;50.562;7.454;2023-03-26T19:07:46;96528.63;;;4.59;100.00
54918;BME280;40818;50.562;7.454;2023-03-26T19:17:56;96542.44;;;4.58;100.00
54918;BME280;40818;50.562;7.454;2023-03-26T19:28:14;96557.28;;;4.67;100.00
54918;BME280;40818;50.562;7.454;2023-03-26T19:38:26;96574.91;;;4.59;100.00
54918;BME280;40818;50.562;7.454;2023-03-26T19:48:33;96587.75;;;4.44;100.00
54918;BME280;40818;50.562;7.454;2023-03-26T19:58:41;96617.25;;;4.23;100.00
54918;BME280;40818;50.562;7.454;2023-03-26T20:08:45;96630.28;;;4.20;100.00
54918;BME280;40818;50.562;7.454;2023-03-26T20:18:52;96648.44;;;4.17;100.00
54918;BME280;40818;50.562;7.454;2023-03-26T20:29:01;96666.63;;;3.98;100.00
54918;BME280;40818;50.562;7.454;2023-03-26T20:39:07;96690.50;;;3.84;100.00
54918;BME280;40818;50.562;7.454;2023-03-26T20:49:11;96705.94;;;3.68;100.00
54918;BME280;40818;50.562;7.454;2023-03-26T20:59:20;96731.44;;;3.55;100.00
54918;BME280;40818;50.562;7.454;2023-03-26T21:09:26;96731.78;;;3.65;100.00
54918;BME280;40818;50.562;7.454;2023-03-26T21:19:37;96765.34;;;3.60;100.00
54918;BME280;40818;50.562;7.454;2023-03-26T21:29:42;96771.94;;;3.32;100.00
54918;BME280;40818;50.562;7.454;2023-03-26T21:39:49;96791.72;;;3.30;100.00
54918;BME280;40818;50.562;7.454;2023-03-26T21:49:53;96826.81;;;3.12;100.00
54918;BME280;40818;50.562;7.454;2023-03-26T22:00:03;96849.66;;;3.17;100.00
54918;BME280;40818;50.562;7.454;2023-03-26T22:10:14;96860.06;;;2.96;100.00
54918;BME280;40818;50.562;7.454;2023-03-26T22:20:21;96885.53;;;2.82;100.00
54918;BME280;40818;50.562;7.454;2023-03-26T22:30:27;96905.09;;;2.84;100.00
54918;BME280;40818;50.562;7.454;2023-03-26T22:40:33;96927.69;;;2.76;100.00
54918;BME280;40818;50.562;7.454;2023-03-26T22:50:37;96949.88;;;2.58;100.00
54918;BME280;40818;50.562;7.454;2023-03-26T23:00:43;96978.13;;;2.37;100.00
54918;BME280;40818;50.562;7.454;2023-03-26T23:10:47;97010.41;;;2.21;100.00
54918;BME280;40818;50.562;7.454;2023-03-26T23:20:55;97021.38;;;2.04;100.00
54918;BME280;40818;50.562;7.454;2023-03-26T23:31:01;97059.53;;;1.90;100.00
54918;BME280;40818;50.562;7.454;2023-03-26T23:41:08;97086.25;;;1.62;100.00
54918;BME280;40818;50.562;7.454;2023-03-26T23:51:14;97108.66;;;1.11;100.00
